sensor_id;sensor_type;location;lat;lon;timestamp;pressure;altitude;pressure_sealevel;temperature;humidity
15670;BME280;18524;45.190;5.732;2023-04-12T00:04:47;98871.81;;;14.48;93.33
15670;BME280;18524;45.190;5.732;2023-04-12T00:09:44;98863.81;;;14.58;92.24
15670;BME280;18524;45.190;5.732;2023-04-12T00:14:34;98857.28;;;14.44;91.90
15670;BME280;18524;45.190;5.732;2023-04-12T00:19:25;98852.16;;;14.43;91.75
15670;BME280;18524;45.190;5.732;2023-04-12T00:24:16;98829.00;;;14.36;92.66
15670;BME280;18524;45.190;5.732;2023-04-12T00:29:08;98830.13;;;14.34;93.23
15670;BME280;18524;45.190;5.732;2023-04-12T00:33:59;98824.19;;;14.32;93.30
15670;BME280;18524;45.190;5.732;2023-04-12T00:38:49;98826.72;;;14.42;93.30
15670;BME280;18524;45.190;5.732;2023-04-12T00:43:40;98831.94;;;14.33;94.23
15670;BME280;18524;45.190;5.732;2023-04-12T00:48:31;98828.06;;;14.20;94.68
15670;BME280;18524;45.190;5.732;2023-04-12T00:53:22;98816.50;;;14.13;95.26
15670;BME280;18524;45.190;5.732;2023-04-12T00:58:13;98813.94;;;14.03;96.27
15670;BME280;18524;45.190;5.732;2023-04-12T01:03:03;98814.44;;;14.06;96.30
15670;BME280;18524;45.190;5.732;2023-04-12T01:13:12;98786.00;;;13.92;97.70
15670;BME280;18524;45.190;5.732;2023-04-12T01:18:09;98781.56;;;13.93;97.42
15670;BME280;18524;45.190;5.732;2023-04-12T01:28:04;98768.63;;;13.82;99.01
15670;BME280;18524;45.190;5.732;2023-04-12T01:32:59;98760.88;;;13.80;98.67
15670;BME280;18524;45.190;5.732;2023-04-12T01:37:49;98746.56;;;13.83;98.71
15670;BME280;18524;45.190;5.732;2023-04-12T01:42:40;98728.50;;;13.70;99.58
15670;BME280;18524;45.190;5.732;2023-04-12T01:47:31;98726.47;;;13.64;100.00
15670;BME280;18524;45.190;5.732;2023-04-12T01:52:23;98711.34;;;13.66;100.00
15670;BME280;18524;45.190;5.732;2023-04-12T01:57:19;98699.09;;;13.57;100.00
15670;BME280;18524;45.190;5.732;2023-04-12T02:02:11;98699.31;;;13.63;100.00
15670;BME280;18524;45.190;5.732;2023-04-12T02:07:02;98686.38;;;13.52;100.00
15670;BME280;18524;45.190;5.732;2023-04-12T02:11:53;98669.50;;;13.63;100.00
15670;BME280;18524;45.190;5.732;2023-04-12T02:16:44;98661.75;;;13.61;100.00
15670;BME280;18524;45.190;5.732;2023-04-12T02:21:42;98651.22;;;13.61;100.00
15670;BME280;18524;45.190;5.732;2023-04-12T02:26:32;98638.50;;;13.57;100.00
15670;BME280;18524;45.190;5.732;2023-04-12T02:31:23;98635.00;;;13.48;100.00
15670;BME280;18524;45.190;5.732;2023-04-12T02:36:13;98623.31;;;13.51;100.00
15670;BME280;18524;45.190;5.732;2023-04-12T02:41:04;98629.72;;;13.48;100.00
15670;BME280;18524;45.190;5.732;2023-04-12T02:45:54;98623.69;;;13.38;100.00
15670;BME280;18524;45.190;5.732;2023-04-12T02:50:45;98624.56;;;13.38;100.00
15670;BME280;18524;45.190;5.732;2023-04-12T02:55:36;98614.53;;;13.42;100.00
15670;BME280;18524;45.190;5.732;2023-04-12T03:00:27;98609.66;;;13.29;100.00
15670;BME280;18524;45.190;5.732;2023-04-12T03:05:17;98607.28;;;13.18;100.00
15670;BME280;18524;45.190;5.732;2023-04-12T03:10:08;98604.34;;;13.21;100.00
15670;BME280;18524;45.190;5.732;2023-04-12T03:15:01;98581.16;;;13.25;100.00
15670;BME280;18524;45.190;5.732;2023-04-12T03:19:51;98599.38;;;13.18;100.00
15670;BME280;18524;45.190;5.732;2023-04-12T03:24:42;98587.47;;;13.14;100.00
15670;BME280;18524;45.190;5.732;2023-04-12T03:29:35;98574.31;;;12.96;100.00
15670;BME280;18524;45.190;5.732;2023-04-12T03:34:26;98568.00;;;13.07;100.00
15670;BME280;18524;45.190;5.732;2023-04-12T03:39:21;98566.81;;;13.01;100.00
15670;BME280;18524;45.190;5.732;2023-04-12T03:44:12;98563.41;;;13.09;100.00
15670;BME280;18524;45.190;5.732;2023-04-12T03:49:02;98565.00;;;13.02;100.00
15670;BME280;18524;45.190;5.732;2023-04-12T03:53:52;98550.03;;;13.02;100.00
15670;BME280;18524;45.190;5.732;2023-04-12T03:58:46;98545.66;;;13.11;100.00
15670;BME280;18524;45.190;5.732;2023-04-12T04:03:37;98543.69;;;13.13;100.00
15670;BME280;18524;45.190;5.732;2023-04-12T04:08:28;98543.13;;;13.01;100.00
15670;BME280;18524;45.190;5.732;2023-04-12T04:13:18;98537.53;;;13.22;100.00
15670;BME280;18524;45.190;5.732;2023-04-12T04:18:08;98537.72;;;13.29;100.00
15670;BME280;18524;45.190;5.732;2023-04-12T04:22:59;98524.75;;;13.35;100.00
15670;BME280;18524;45.190;5.732;2023-04-12T04:27:49;98532.00;;;13.33;100.00
15670;BME280;18524;45.190;5.732;2023-04-12T04:32:40;98536.94;;;13.36;100.00
15670;BME280;18524;45.190;5.732;2023-04-12T04:37:31;98531.91;;;13.43;100.00
15670;BME280;18524;45.190;5.732;2023-04-12T04:42:24;98520.25;;;13.54;100.00
15670;BME280;18524;45.190;5.732;2023-04-12T04:47:14;98526.78;;;13.41;100.00
15670;BME280;18524;45.190;5.732;2023-04-12T04:52:05;98526.78;;;13.41;100.00
15670;BME280;18524;45.190;5.732;2023-04-12T04:56:57;98530.31;;;13.24;100.00
15670;BME280;18524;45.190;5.732;2023-04-12T05:01:49;98521.66;;;13.14;100.00
15670;BME280;18524;45.190;5.732;2023-04-12T05:06:41;98529.00;;;13.02;100.00
15670;BME280;18524;45.190;5.732;2023-04-12T05:11:31;98535.16;;;12.93;100.00
15670;BME280;18524;45.190;5.732;2023-04-12T05:16:21;98544.69;;;12.94;100.00
15670;BME280;18524;45.190;5.732;2023-04-12T05:21:12;98526.94;;;12.96;100.00
15670;BME280;18524;45.190;5.732;2023-04-12T05:26:03;98532.16;;;12.88;100.00
15670;BME280;18524;45.190;5.732;2023-04-12T05:30:53;98517.72;;;12.92;100.00
15670;BME280;18524;45.190;5.732;2023-04-12T05:35:43;98516.69;;;12.85;100.00
15670;BME280;18524;45.190;5.732;2023-04-12T05:40:34;98498.78;;;12.89;100.00
15670;BME280;18524;45.190;5.732;2023-04-12T05:45:25;98503.00;;;12.81;100.00
15670;BME280;18524;45.190;5.732;2023-04-12T05:50:16;98507.91;;;12.76;100.00
15670;BME280;18524;45.190;5.732;2023-04-12T05:55:06;98487.88;;;12.83;100.00
15670;BME280;18524;45.190;5.732;2023-04-12T05:59:57;98492.69;;;12.88;100.00
15670;BME280;18524;45.190;5.732;2023-04-12T06:04:47;98499.88;;;13.04;100.00
15670;BME280;18524;45.190;5.732;2023-04-12T06:09:37;98491.44;;;13.18;100.00
15670;BME280;18524;45.190;5.732;2023-04-12T06:14:28;98496.06;;;13.24;100.00
15670;BME280;18524;45.190;5.732;2023-04-12T06:19:18;98503.41;;;13.38;100.00
15670;BME280;18524;45.190;5.732;2023-04-12T06:24:09;98511.50;;;13.45;100.00
15670;BME280;18524;45.190;5.732;2023-04-12T06:28:59;98525.56;;;13.62;100.00
15670;BME280;18524;45.190;5.732;2023-04-12T06:33:49;98528.56;;;13.75;99.73
15670;BME280;18524;45.190;5.732;2023-04-12T06:38:40;98522.34;;;13.76;98.43
15670;BME280;18524;45.190;5.732;2023-04-12T06:43:31;98531.22;;;13.75;97.99
15670;BME280;18524;45.190;5.732;2023-04-12T06:48:21;98524.81;;;13.77;98.55
15670;BME280;18524;45.190;5.732;2023-04-12T06:53:12;98520.97;;;13.72;98.30
15670;BME280;18524;45.190;5.732;2023-04-12T06:58:02;98534.53;;;13.77;98.98
15670;BME280;18524;45.190;5.732;2023-04-12T07:02:54;98535.53;;;13.76;97.71
15670;BME280;18524;45.190;5.732;2023-04-12T07:07:44;98523.41;;;13.99;97.42
15670;BME280;18524;45.190;5.732;2023-04-12T07:12:35;98530.34;;;14.08;95.53
15670;BME280;18524;45.190;5.732;2023-04-12T07:17:25;98500.34;;;14.01;96.85
15670;BME280;18524;45.190;5.732;2023-04-12T07:22:16;98505.31;;;14.13;97.30
15670;BME280;18524;45.190;5.732;2023-04-12T07:27:06;98496.28;;;14.31;95.48
15670;BME280;18524;45.190;5.732;2023-04-12T07:31:58;98506.34;;;14.36;94.22
15670;BME280;18524;45.190;5.732;2023-04-12T07:36:48;98501.09;;;14.44;94.09
15670;BME280;18524;45.190;5.732;2023-04-12T07:41:39;98490.50;;;14.36;92.18
15670;BME280;18524;45.190;5.732;2023-04-12T07:46:31;98481.94;;;14.34;93.75
15670;BME280;18524;45.190;5.732;2023-04-12T07:51:21;98495.28;;;14.40;92.98
15670;BME280;18524;45.190;5.732;2023-04-12T07:56:12;98492.56;;;14.50;93.14
15670;BME280;18524;45.190;5.732;2023-04-12T08:01:02;98500.78;;;14.55;92.88
15670;BME280;18524;45.190;5.732;2023-04-12T08:05:52;98495.19;;;14.66;91.46
15670;BME280;18524;45.190;5.732;2023-04-12T08:10:43;98486.44;;;14.74;91.98
15670;BME280;18524;45.190;5.732;2023-04-12T08:15:33;98499.59;;;14.82;91.19
15670;BME280;18524;45.190;5.732;2023-04-12T08:20:23;98510.19;;;14.90;90.10
15670;BME280;18524;45.190;5.732;2023-04-12T08:25:15;98504.25;;;14.96;89.41
15670;BME280;18524;45.190;5.732;2023-04-12T08:30:06;98489.19;;;15.13;88.96
15670;BME280;18524;45.190;5.732;2023-04-12T08:34:57;98502.06;;;15.24;88.28
15670;BME280;18524;45.190;5.732;2023-04-12T08:39:47;98502.66;;;15.43;87.22
15670;BME280;18524;45.190;5.732;2023-04-12T08:44:38;98504.09;;;15.53;83.79
15670;BME280;18524;45.190;5.732;2023-04-12T08:49:32;98507.72;;;15.69;79.59
15670;BME280;18524;45.190;5.732;2023-04-12T08:54:23;98500.31;;;15.64;79.20
15670;BME280;18524;45.190;5.732;2023-04-12T08:59:14;98477.19;;;15.58;79.17
15670;BME280;18524;45.190;5.732;2023-04-12T09:04:07;98473.53;;;15.67;79.07
15670;BME280;18524;45.190;5.732;2023-04-12T09:08:57;98473.91;;;15.87;79.89
15670;BME280;18524;45.190;5.732;2023-04-12T09:13:49;98460.09;;;16.08;80.67
15670;BME280;18524;45.190;5.732;2023-04-12T09:18:49;98464.72;;;16.06;80.50
15670;BME280;18524;45.190;5.732;2023-04-12T09:23:40;98451.03;;;16.25;80.48
15670;BME280;18524;45.190;5.732;2023-04-12T09:28:30;98443.38;;;16.30;78.49
15670;BME280;18524;45.190;5.732;2023-04-12T09:33:23;98433.75;;;16.37;76.38
15670;BME280;18524;45.190;5.732;2023-04-12T09:38:21;98432.97;;;16.51;74.63
15670;BME280;18524;45.190;5.732;2023-04-12T09:43:12;98414.34;;;16.60;74.22
15670;BME280;18524;45.190;5.732;2023-04-12T09:48:02;98406.66;;;16.73;74.21
15670;BME280;18524;45.190;5.732;2023-04-12T09:52:54;98395.63;;;16.84;71.67
15670;BME280;18524;45.190;5.732;2023-04-12T09:57:45;98386.63;;;16.70;72.69
15670;BME280;18524;45.190;5.732;2023-04-12T10:02:40;98388.59;;;16.76;73.53
15670;BME280;18524;45.190;5.732;2023-04-12T10:07:31;98385.66;;;16.86;73.72
15670;BME280;18524;45.190;5.732;2023-04-12T10:12:21;98380.75;;;17.12;71.99
15670;BME280;18524;45.190;5.732;2023-04-12T10:17:12;98370.19;;;17.34;71.65
15670;BME280;18524;45.190;5.732;2023-04-12T10:22:02;98364.56;;;17.58;70.43
15670;BME280;18524;45.190;5.732;2023-04-12T10:26:54;98354.34;;;17.55;69.75
15670;BME280;18524;45.190;5.732;2023-04-12T10:31:45;98359.91;;;17.45;70.24
15670;BME280;18524;45.190;5.732;2023-04-12T10:36:59;98357.03;;;17.26;69.38
15670;BME280;18524;45.190;5.732;2023-04-12T10:47:12;98327.34;;;17.30;66.67
15670;BME280;18524;45.190;5.732;2023-04-12T10:52:10;98337.63;;;17.40;65.36
15670;BME280;18524;45.190;5.732;2023-04-12T10:57:03;98338.91;;;17.44;65.92
15670;BME280;18524;45.190;5.732;2023-04-12T11:06:58;98317.16;;;17.85;64.19
15670;BME280;18524;45.190;5.732;2023-04-12T11:11:55;98296.31;;;18.09;62.09
15670;BME280;18524;45.190;5.732;2023-04-12T11:21:55;98293.50;;;18.46;60.72
15670;BME280;18524;45.190;5.732;2023-04-12T11:26:46;98282.84;;;18.67;59.04
15670;BME280;18524;45.190;5.732;2023-04-12T11:31:39;98282.09;;;18.80;58.41
15670;BME280;18524;45.190;5.732;2023-04-12T11:36:30;98283.13;;;18.85;58.22
15670;BME280;18524;45.190;5.732;2023-04-12T11:41:20;98281.13;;;18.94;57.61
15670;BME280;18524;45.190;5.732;2023-04-12T11:46:11;98278.53;;;19.00;57.66
15670;BME280;18524;45.190;5.732;2023-04-12T11:51:17;98266.66;;;18.96;57.31
15670;BME280;18524;45.190;5.732;2023-04-12T11:56:09;98249.28;;;19.00;57.22
15670;BME280;18524;45.190;5.732;2023-04-12T12:00:59;98238.47;;;19.02;56.98
15670;BME280;18524;45.190;5.732;2023-04-12T12:05:50;98227.44;;;19.12;55.16
15670;BME280;18524;45.190;5.732;2023-04-12T12:10:40;98217.81;;;18.97;54.92
15670;BME280;18524;45.190;5.732;2023-04-12T12:15:31;98213.94;;;19.07;55.22
15670;BME280;18524;45.190;5.732;2023-04-12T12:20:21;98213.34;;;19.18;55.63
15670;BME280;18524;45.190;5.732;2023-04-12T12:25:13;98209.31;;;19.48;54.42
15670;BME280;18524;45.190;5.732;2023-04-12T12:30:06;98214.00;;;19.33;54.03
15670;BME280;18524;45.190;5.732;2023-04-12T12:34:57;98201.56;;;19.53;54.34
15670;BME280;18524;45.190;5.732;2023-04-12T12:45:00;98176.97;;;19.31;55.75
15670;BME280;18524;45.190;5.732;2023-04-12T12:49:50;98167.38;;;19.37;56.54
15670;BME280;18524;45.190;5.732;2023-04-12T12:54:41;98167.78;;;19.41;55.96
15670;BME280;18524;45.190;5.732;2023-04-12T12:59:31;98153.28;;;19.56;53.95
15670;BME280;18524;45.190;5.732;2023-04-12T13:04:21;98145.50;;;19.55;53.92
15670;BME280;18524;45.190;5.732;2023-04-12T13:09:12;98141.81;;;19.49;54.07
15670;BME280;18524;45.190;5.732;2023-04-12T13:14:02;98118.91;;;19.48;53.49
15670;BME280;18524;45.190;5.732;2023-04-12T13:18:52;98119.50;;;19.50;53.25
15670;BME280;18524;45.190;5.732;2023-04-12T13:23:43;98094.78;;;19.56;53.05
15670;BME280;18524;45.190;5.732;2023-04-12T13:28:33;98105.81;;;19.53;52.49
15670;BME280;18524;45.190;5.732;2023-04-12T13:33:24;98108.06;;;19.43;53.52
15670;BME280;18524;45.190;5.732;2023-04-12T13:38:14;98093.94;;;19.36;52.83
15670;BME280;18524;45.190;5.732;2023-04-12T13:43:04;98097.03;;;19.33;54.25
15670;BME280;18524;45.190;5.732;2023-04-12T13:47:56;98092.31;;;19.35;53.22
15670;BME280;18524;45.190;5.732;2023-04-12T13:52:47;98088.63;;;19.43;52.70
15670;BME280;18524;45.190;5.732;2023-04-12T13:57:37;98087.19;;;19.47;51.86
15670;BME280;18524;45.190;5.732;2023-04-12T14:02:28;98080.22;;;19.52;52.17
15670;BME280;18524;45.190;5.732;2023-04-12T14:07:18;98084.31;;;19.61;51.95
15670;BME280;18524;45.190;5.732;2023-04-12T14:12:09;98071.88;;;19.55;52.03
15670;BME280;18524;45.190;5.732;2023-04-12T14:16:59;98068.19;;;19.56;52.14
15670;BME280;18524;45.190;5.732;2023-04-12T14:21:50;98064.25;;;19.52;52.44
15670;BME280;18524;45.190;5.732;2023-04-12T14:26:41;98048.13;;;19.54;53.85
15670;BME280;18524;45.190;5.732;2023-04-12T14:31:32;98045.06;;;19.57;53.17
15670;BME280;18524;45.190;5.732;2023-04-12T14:36:23;98051.19;;;19.57;52.51
15670;BME280;18524;45.190;5.732;2023-04-12T14:41:14;98040.34;;;19.59;51.21
15670;BME280;18524;45.190;5.732;2023-04-12T14:46:04;98041.38;;;19.45;52.49
15670;BME280;18524;45.190;5.732;2023-04-12T14:50:55;98034.84;;;19.41;53.74
15670;BME280;18524;45.190;5.732;2023-04-12T14:55:45;98024.19;;;19.27;54.53
15670;BME280;18524;45.190;5.732;2023-04-12T15:00:36;98046.31;;;19.15;57.34
15670;BME280;18524;45.190;5.732;2023-04-12T15:05:27;98041.81;;;19.09;60.11
15670;BME280;18524;45.190;5.732;2023-04-12T15:10:17;98067.53;;;18.95;63.38
15670;BME280;18524;45.190;5.732;2023-04-12T15:15:09;98110.53;;;18.57;65.51
15670;BME280;18524;45.190;5.732;2023-04-12T15:20:00;98141.94;;;17.99;69.74
15670;BME280;18524;45.190;5.732;2023-04-12T15:24:58;98185.47;;;17.56;69.85
15670;BME280;18524;45.190;5.732;2023-04-12T15:29:48;98197.97;;;17.19;78.76
15670;BME280;18524;45.190;5.732;2023-04-12T15:34:38;98217.44;;;16.90;83.47
15670;BME280;18524;45.190;5.732;2023-04-12T15:39:29;98231.16;;;16.79;84.96
15670;BME280;18524;45.190;5.732;2023-04-12T15:44:19;98210.63;;;16.66;84.74
15670;BME280;18524;45.190;5.732;2023-04-12T15:49:10;98228.22;;;16.59;83.94
15670;BME280;18524;45.190;5.732;2023-04-12T15:54:00;98229.88;;;16.45;87.04
15670;BME280;18524;45.190;5.732;2023-04-12T15:58:52;98238.44;;;16.33;93.08
15670;BME280;18524;45.190;5.732;2023-04-12T16:03:42;98239.34;;;16.25;99.08
15670;BME280;18524;45.190;5.732;2023-04-12T16:08:36;98254.84;;;15.99;100.00
15670;BME280;18524;45.190;5.732;2023-04-12T16:13:26;98251.88;;;15.79;100.00
15670;BME280;18524;45.190;5.732;2023-04-12T16:18:17;98273.66;;;15.58;100.00
15670;BME280;18524;45.190;5.732;2023-04-12T16:23:08;98281.75;;;15.33;100.00
15670;BME280;18524;45.190;5.732;2023-04-12T16:27:58;98277.75;;;15.38;100.00
15670;BME280;18524;45.190;5.732;2023-04-12T16:32:51;98279.75;;;15.36;100.00
15670;BME280;18524;45.190;5.732;2023-04-12T16:37:43;98281.00;;;15.17;100.00
15670;BME280;18524;45.190;5.732;2023-04-12T16:42:33;98287.50;;;15.06;100.00
15670;BME280;18524;45.190;5.732;2023-04-12T16:47:24;98295.53;;;14.90;100.00
15670;BME280;18524;45.190;5.732;2023-04-12T16:52:14;98287.72;;;14.96;100.00
15670;BME280;18524;45.190;5.732;2023-04-12T16:57:05;98293.69;;;14.90;100.00
15670;BME280;18524;45.190;5.732;2023-04-12T17:01:56;98288.09;;;14.85;100.00
15670;BME280;18524;45.190;5.732;2023-04-12T17:06:51;98306.38;;;14.95;100.00
15670;BME280;18524;45.190;5.732;2023-04-12T17:11:43;98310.03;;;14.94;100.00
15670;BME280;18524;45.190;5.732;2023-04-12T17:16:35;98322.06;;;14.96;100.00
15670;BME280;18524;45.190;5.732;2023-04-12T17:21:26;98321.22;;;14.96;100.00
15670;BME280;18524;45.190;5.732;2023-04-12T17:26:18;98332.69;;;14.72;100.00
15670;BME280;18524;45.190;5.732;2023-04-12T17:31:14;98333.50;;;14.73;100.00
15670;BME280;18524;45.190;5.732;2023-04-12T17:36:04;98332.56;;;14.49;100.00
15670;BME280;18524;45.190;5.732;2023-04-12T17:40:55;98334.72;;;14.46;100.00
15670;BME280;18524;45.190;5.732;2023-04-12T17:45:45;98338.53;;;14.43;100.00
15670;BME280;18524;45.190;5.732;2023-04-12T17:50:35;98363.91;;;14.44;100.00
15670;BME280;18524;45.190;5.732;2023-04-12T17:55:26;98377.56;;;14.39;100.00
15670;BME280;18524;45.190;5.732;2023-04-12T18:00:17;98405.44;;;14.34;100.00
15670;BME280;18524;45.190;5.732;2023-04-12T18:05:08;98403.13;;;14.31;100.00
15670;BME280;18524;45.190;5.732;2023-04-12T18:09:59;98436.44;;;14.24;98.56
15670;BME280;18524;45.190;5.732;2023-04-12T18:14:51;98431.81;;;14.34;100.00
15670;BME280;18524;45.190;5.732;2023-04-12T18:19:41;98443.84;;;14.20;100.00
15670;BME280;18524;45.190;5.732;2023-04-12T18:24:32;98453.75;;;14.26;100.00
15670;BME280;18524;45.190;5.732;2023-04-12T18:29:22;98451.44;;;14.23;100.00
15670;BME280;18524;45.190;5.732;2023-04-12T18:34:13;98464.41;;;14.08;100.00
15670;BME280;18524;45.190;5.732;2023-04-12T18:39:03;98448.94;;;14.05;100.00
15670;BME280;18524;45.190;5.732;2023-04-12T18:43:54;98463.56;;;13.92;100.00
15670;BME280;18524;45.190;5.732;2023-04-12T18:48:45;98467.34;;;13.81;100.00
15670;BME280;18524;45.190;5.732;2023-04-12T18:53:37;98479.84;;;13.79;100.00
15670;BME280;18524;45.190;5.732;2023-04-12T18:58:28;98486.88;;;13.70;100.00
15670;BME280;18524;45.190;5.732;2023-04-12T19:03:18;98502.59;;;13.80;100.00
15670;BME280;18524;45.190;5.732;2023-04-12T19:08:08;98518.72;;;13.77;100.00
15670;BME280;18524;45.190;5.732;2023-04-12T19:13:01;98526.97;;;13.82;100.00
15670;BME280;18524;45.190;5.732;2023-04-12T19:17:51;98529.28;;;13.85;100.00
15670;BME280;18524;45.190;5.732;2023-04-12T19:22:42;98536.53;;;13.83;100.00
15670;BME280;18524;45.190;5.732;2023-04-12T19:27:32;98545.75;;;13.79;100.00
15670;BME280;18524;45.190;5.732;2023-04-12T19:32:23;98546.56;;;13.80;100.00
15670;BME280;18524;45.190;5.732;2023-04-12T19:37:13;98551.34;;;13.76;100.00
15670;BME280;18524;45.190;5.732;2023-04-12T19:42:03;98565.19;;;13.78;100.00
15670;BME280;18524;45.190;5.732;2023-04-12T19:46:54;98571.94;;;13.81;100.00
15670;BME280;18524;45.190;5.732;2023-04-12T19:51:45;98592.72;;;13.58;100.00
15670;BME280;18524;45.190;5.732;2023-04-12T19:56:35;98598.19;;;13.64;100.00
15670;BME280;18524;45.190;5.732;2023-04-12T20:01:26;98588.63;;;13.63;100.00
15670;BME280;18524;45.190;5.732;2023-04-12T20:06:17;98587.97;;;13.61;100.00
15670;BME280;18524;45.190;5.732;2023-04-12T20:11:07;98592.28;;;13.70;100.00
15670;BME280;18524;45.190;5.732;2023-04-12T20:15:58;98546.97;;;13.59;100.00
15670;BME280;18524;45.190;5.732;2023-04-12T20:20:53;98575.56;;;13.28;100.00
15670;BME280;18524;45.190;5.732;2023-04-12T20:25:46;98584.56;;;13.17;100.00
15670;BME280;18524;45.190;5.732;2023-04-12T20:30:38;98591.84;;;13.23;100.00
15670;BME280;18524;45.190;5.732;2023-04-12T20:35:28;98580.94;;;13.18;100.00
15670;BME280;18524;45.190;5.732;2023-04-12T20:40:19;98568.53;;;13.10;100.00
15670;BME280;18524;45.190;5.732;2023-04-12T20:45:12;98567.63;;;13.20;100.00
15670;BME280;18524;45.190;5.732;2023-04-12T20:50:04;98547.00;;;13.15;100.00
15670;BME280;18524;45.190;5.732;2023-04-12T20:54:55;98557.69;;;13.13;100.00
15670;BME280;18524;45.190;5.732;2023-04-12T20:59:46;98565.50;;;13.23;100.00
15670;BME280;18524;45.190;5.732;2023-04-12T21:04:36;98559.88;;;13.18;100.00
15670;BME280;18524;45.190;5.732;2023-04-12T21:09:30;98553.47;;;13.21;100.00
15670;BME280;18524;45.190;5.732;2023-04-12T21:14:20;98535.81;;;13.13;100.00
15670;BME280;18524;45.190;5.732;2023-04-12T21:19:10;98542.00;;;13.04;100.00
15670;BME280;18524;45.190;5.732;2023-04-12T21:24:02;98544.09;;;13.00;100.00
15670;BME280;18524;45.190;5.732;2023-04-12T21:28:53;98556.72;;;12.97;100.00
15670;BME280;18524;45.190;5.732;2023-04-12T21:33:43;98562.09;;;12.87;100.00
15670;BME280;18524;45.190;5.732;2023-04-12T21:38:33;98582.97;;;12.89;97.89
15670;BME280;18524;45.190;5.732;2023-04-12T21:43:24;98581.28;;;12.79;98.10
15670;BME280;18524;45.190;5.732;2023-04-12T21:48:14;98560.91;;;12.81;100.00
15670;BME280;18524;45.190;5.732;2023-04-12T21:53:05;98559.53;;;12.77;100.00
15670;BME280;18524;45.190;5.732;2023-04-12T21:57:55;98563.16;;;12.59;100.00
15670;BME280;18524;45.190;5.732;2023-04-12T22:02:46;98568.84;;;12.54;100.00
15670;BME280;18524;45.190;5.732;2023-04-12T22:07:36;98569.00;;;12.52;100.00
15670;BME280;18524;45.190;5.732;2023-04-12T22:12:30;98557.16;;;12.66;100.00
15670;BME280;18524;45.190;5.732;2023-04-12T22:17:22;98570.22;;;12.58;100.00
15670;BME280;18524;45.190;5.732;2023-04-12T22:22:13;98571.41;;;12.46;100.00
15670;BME280;18524;45.190;5.732;2023-04-12T22:27:05;98569.09;;;12.43;100.00
15670;BME280;18524;45.190;5.732;2023-04-12T22:31:56;98569.47;;;12.48;100.00
15670;BME280;18524;45.190;5.732;2023-04-12T22:36:46;98574.03;;;12.46;100.00
15670;BME280;18524;45.190;5.732;2023-04-12T22:41:40;98568.78;;;12.46;100.00
15670;BME280;18524;45.190;5.732;2023-04-12T22:46:30;98568.13;;;12.44;100.00
15670;BME280;18524;45.190;5.732;2023-04-12T22:51:21;98563.53;;;12.46;100.00
15670;BME280;18524;45.190;5.732;2023-04-12T22:56:13;98563.75;;;12.35;100.00
15670;BME280;18524;45.190;5.732;2023-04-12T23:01:04;98564.81;;;12.42;100.00
15670;BME280;18524;45.190;5.732;2023-04-12T23:05:55;98571.94;;;12.32;100.00
15670;BME280;18524;45.190;5.732;2023-04-12T23:10:45;98569.34;;;12.22;100.00
15670;BME280;18524;45.190;5.732;2023-04-12T23:15:36;98564.25;;;12.20;100.00
15670;BME280;18524;45.190;5.732;2023-04-12T23:20:29;98557.69;;;12.07;100.00
15670;BME280;18524;45.190;5.732;2023-04-12T23:25:23;98558.97;;;12.03;100.00
15670;BME280;18524;45.190;5.732;2023-04-12T23:30:15;98566.50;;;11.88;100.00
15670;BME280;18524;45.190;5.732;2023-04-12T23:35:06;98566.91;;;11.93;100.00
15670;BME280;18524;45.190;5.732;2023-04-12T23:39:57;98575.50;;;11.76;100.00
15670;BME280;18524;45.190;5.732;2023-04-12T23:44:55;98583.00;;;11.80;100.00
15670;BME280;18524;45.190;5.732;2023-04-12T23:49:46;98569.63;;;11.64;100.00
15670;BME280;18524;45.190;5.732;2023-04-12T23:54:36;98577.28;;;11.48;100.00
15670;BME280;18524;45.190;5.732;2023-04-12T23:59:27;98574.25;;;11.43;100.00
